Time;durP1;ratioP1;P1;durP2;ratioP2;P2;SDS_P1;SDS_P2;PMS_P1;PMS_P2;Temp;Humidity;BMP_temperature;BMP_pressure;BME280_temperature;BME280_humidity;BME280_pressure;Samples;Min_cycle;Max_cycle;Signal;HPM_P1;HPM_P2
2023/05/06 00:00:21;;;;;;;;;;;;;;;21.64;30.07;97867.22;5053988;28;979;-75
2023/05/06 00:02:47;;;;;;;;;;;;;;;21.40;30.89;97863.06;5054355;28;948;-75
2023/05/06 00:05:13;;;;;;;;;;;;;;;21.72;30.43;97862.97;5073066;28;2002;-75
2023/05/06 00:07:38;;;;;;;;;;;;;;;21.78;29.94;97855.50;5042320;28;1053;-75
2023/05/06 00:10:04;;;;;;;;;;;;;;;21.45;30.73;97854.03;5077588;28;1136;-75
2023/05/06 00:12:30;;;;;;;;;;;;;;;21.45;31.05;97860.50;5060878;28;1270;-75
2023/05/06 00:14:56;;;;;;;;;;;;;;;21.84;30.45;97855.72;5077254;28;1909;-75
2023/05/06 00:17:21;;;;;;;;;;;;;;;22.10;30.03;97854.53;5060868;28;1162;-75
2023/05/06 00:19:47;;;;;;;;;;;;;;;22.47;29.55;97851.38;5094044;28;1322;-75
2023/05/06 00:22:12;;;;;;;;;;;;;;;21.85;30.39;97852.44;5093388;28;1757;-76
2023/05/06 00:24:38;;;;;;;;;;;;;;;21.40;30.64;97854.56;5094078;28;1063;-75
2023/05/06 00:27:03;;;;;;;;;;;;;;;21.50;30.39;97853.47;5059978;28;1443;-75
2023/05/06 00:29:29;;;;;;;;;;;;;;;21.68;30.00;97848.09;5093165;28;1028;-75
2023/05/06 00:31:55;;;;;;;;;;;;;;;21.63;30.40;97854.31;5077375;28;987;-75
2023/05/06 00:34:20;;;;;;;;;;;;;;;21.50;30.45;97850.66;5060402;28;1963;-75
2023/05/06 00:36:46;;;;;;;;;;;;;;;21.73;30.68;97841.88;5079035;28;1067;-74
2023/05/06 00:39:11;;;;;;;;;;;;;;;22.19;29.94;97844.59;5065058;28;1702;-75
2023/05/06 00:41:37;;;;;;;;;;;;;;;21.98;30.52;97846.00;5072218;28;1399;-74
2023/05/06 00:44:03;;;;;;;;;;;;;;;21.89;30.21;97843.03;5057039;28;1026;-75
2023/05/06 00:46:28;;;;;;;;;;;;;;;21.58;30.42;97840.72;5057106;28;1293;-74
2023/05/06 00:48:54;;;;;;;;;;;;;;;21.30;30.62;97836.66;5056900;28;1095;-74
2023/05/06 00:51:19;;;;;;;;;;;;;;;21.25;30.94;97840.81;5056893;28;961;-75
2023/05/06 00:53:46;;;;;;;;;;;;;;;22.12;30.19;97839.91;5039744;28;1699;-75
2023/05/06 00:56:11;;;;;;;;;;;;;;;22.27;29.76;97846.72;5074879;28;1920;-75
2023/05/06 00:58:37;;;;;;;;;;;;;;;22.27;29.62;97838.22;5076787;28;991;-75
2023/05/06 01:01:02;;;;;;;;;;;;;;;21.78;30.10;97838.50;5075727;28;2088;-74
2023/05/06 01:03:28;;;;;;;;;;;;;;;21.44;30.43;97830.59;5076894;28;1081;-74
2023/05/06 01:05:59;;;;;;;;;;;;;;;21.51;30.51;97832.44;5036978;28;1491;-75
2023/05/06 01:08:28;;;;;;;;;;;;;;;21.64;30.54;97829.63;5036507;28;1023;-75
2023/05/06 01:11:04;;;;;;;;;;;;;;;21.67;30.37;97826.69;5036814;28;1072;-74
2023/05/06 01:13:34;;;;;;;;;;;;;;;22.02;29.91;97829.69;5035356;28;1690;-75
2023/05/06 01:16:00;;;;;;;;;;;;;;;21.83;30.40;97828.66;5036740;28;1991;-75
2023/05/06 01:18:25;;;;;;;;;;;;;;;21.37;31.11;97822.31;5036654;28;1368;-75
2023/05/06 01:20:51;;;;;;;;;;;;;;;21.56;30.64;97820.56;5036719;28;1102;-76
2023/05/06 01:23:18;;;;;;;;;;;;;;;21.57;30.92;97819.31;5036917;28;986;-75
2023/05/06 01:25:44;;;;;;;;;;;;;;;21.44;30.87;97824.13;5036496;28;1377;-75
2023/05/06 01:28:10;;;;;;;;;;;;;;;21.50;30.66;97822.34;5019735;28;1850;-74
2023/05/06 01:30:45;;;;;;;;;;;;;;;21.45;30.86;97820.06;5036578;28;957;-75
2023/05/06 01:33:40;;;;;;;;;;;;;;;21.57;30.67;97814.44;5036491;28;1375;-75
2023/05/06 01:36:12;;;;;;;;;;;;;;;21.67;30.39;97826.69;5012399;28;1986;-75
2023/05/06 01:38:42;;;;;;;;;;;;;;;21.57;30.42;97810.81;4997267;28;1110;-75
2023/05/06 01:41:10;;;;;;;;;;;;;;;21.41;30.79;97808.84;4999388;28;1148;-75
2023/05/06 01:43:39;;;;;;;;;;;;;;;21.47;30.53;97817.59;5000764;28;1187;-75
2023/05/06 01:46:05;;;;;;;;;;;;;;;21.43;30.69;97808.41;5000925;28;1091;-75
2023/05/06 01:48:31;;;;;;;;;;;;;;;21.67;30.55;97814.59;5000582;28;1146;-76
2023/05/06 01:50:56;;;;;;;;;;;;;;;22.00;30.26;97812.34;5002969;28;2004;-75
2023/05/06 01:53:22;;;;;;;;;;;;;;;21.98;30.28;97806.34;5000406;28;1116;-74
2023/05/06 01:55:48;;;;;;;;;;;;;;;21.81;30.49;97806.47;5000513;28;1995;-74
2023/05/06 01:58:15;;;;;;;;;;;;;;;21.96;30.00;97808.81;5000651;28;1151;-75
2023/05/06 02:00:41;;;;;;;;;;;;;;;21.46;30.42;97810.34;5000375;28;1017;-74
2023/05/06 02:03:06;;;;;;;;;;;;;;;21.41;30.93;97813.72;5016678;28;1106;-75
2023/05/06 02:05:32;;;;;;;;;;;;;;;21.93;30.43;97812.59;4998731;28;1692;-75
2023/05/06 02:07:59;;;;;;;;;;;;;;;22.20;30.11;97818.63;5000189;28;1430;-75
2023/05/06 02:10:25;;;;;;;;;;;;;;;21.83;30.33;97812.44;5016576;28;1142;-75
2023/05/06 02:12:57;;;;;;;;;;;;;;;21.78;29.89;97815.06;5025808;28;1463;-75
2023/05/06 02:15:22;;;;;;;;;;;;;;;21.26;30.68;97814.09;5059081;28;1975;-75
2023/05/06 02:17:48;;;;;;;;;;;;;;;21.39;30.38;97822.66;5076122;28;1235;-74
2023/05/06 02:20:13;;;;;;;;;;;;;;;21.46;30.41;97816.00;5076209;28;1061;-74
2023/05/06 02:22:39;;;;;;;;;;;;;;;21.63;30.05;97820.34;5035474;28;1774;-74
2023/05/06 02:25:05;;;;;;;;;;;;;;;21.45;31.28;97825.72;5035337;28;1054;-74
2023/05/06 02:27:30;;;;;;;;;;;;;;;21.94;30.62;97823.44;5039309;28;1110;-76
2023/05/06 02:29:56;;;;;;;;;;;;;;;22.16;30.20;97822.81;5055903;28;1314;-74
2023/05/06 02:32:21;;;;;;;;;;;;;;;22.09;30.10;97824.59;5039676;28;1164;-74
2023/05/06 02:34:47;;;;;;;;;;;;;;;21.66;30.83;97816.63;5055945;28;1984;-74
2023/05/06 02:37:13;;;;;;;;;;;;;;;21.59;30.75;97825.31;5055176;28;2004;-74
2023/05/06 02:39:38;;;;;;;;;;;;;;;21.43;31.05;97831.03;5039242;28;935;-74
2023/05/06 02:42:04;;;;;;;;;;;;;;;21.41;31.12;97833.53;5037733;28;1974;-76
2023/05/06 02:44:30;;;;;;;;;;;;;;;21.35;31.05;97832.47;5047118;28;1602;-74
2023/05/06 02:46:57;;;;;;;;;;;;;;;21.23;31.38;97831.94;5002935;28;1522;-74
2023/05/06 02:49:23;;;;;;;;;;;;;;;21.37;31.04;97836.47;5052234;28;948;-75
2023/05/06 02:51:48;;;;;;;;;;;;;;;21.81;30.78;97831.94;5034953;28;941;-75
2023/05/06 02:54:14;;;;;;;;;;;;;;;21.94;30.83;97839.66;5062621;28;1909;-75
2023/05/06 02:56:42;;;;;;;;;;;;;;;22.16;30.39;97842.66;5056580;28;1422;-75
2023/05/06 02:59:07;;;;;;;;;;;;;;;21.76;30.68;97835.34;5040033;28;933;-74
2023/05/06 03:01:33;;;;;;;;;;;;;;;21.79;30.40;97833.63;5058523;28;1136;-75
2023/05/06 03:03:58;;;;;;;;;;;;;;;21.56;30.48;97832.69;5041773;28;956;-75
2023/05/06 03:06:24;;;;;;;;;;;;;;;21.44;30.90;97838.28;5058919;28;1219;-74
2023/05/06 03:08:50;;;;;;;;;;;;;;;21.44;30.59;97836.25;5058490;28;1694;-74
2023/05/06 03:11:15;;;;;;;;;;;;;;;21.68;30.22;97828.28;5075016;28;1156;-74
2023/05/06 03:13:41;;;;;;;;;;;;;;;21.58;30.47;97829.38;5075444;28;1127;-74
2023/05/06 03:16:10;;;;;;;;;;;;;;;21.69;30.66;97837.56;5058254;28;1976;-76
2023/05/06 03:18:36;;;;;;;;;;;;;;;21.54;30.72;97834.34;5074824;28;1139;-77
2023/05/06 03:21:03;;;;;;;;;;;;;;;21.36;31.16;97834.88;5055026;28;1178;-74
2023/05/06 03:23:31;;;;;;;;;;;;;;;21.45;30.93;97825.72;5042935;28;1937;-74
2023/05/06 03:25:58;;;;;;;;;;;;;;;21.60;31.14;97832.56;5041483;28;1300;-74
2023/05/06 03:28:24;;;;;;;;;;;;;;;21.92;30.99;97828.00;5058357;28;977;-75
2023/05/06 03:30:50;;;;;;;;;;;;;;;22.04;30.87;97832.88;5041272;28;1412;-75
2023/05/06 03:33:16;;;;;;;;;;;;;;;22.09;30.70;97835.94;5041244;28;1663;-75
2023/05/06 03:35:41;;;;;;;;;;;;;;;22.11;30.17;97835.50;5041304;28;1898;-75
2023/05/06 03:38:07;;;;;;;;;;;;;;;21.81;30.47;97825.47;5056994;28;1931;-74
2023/05/06 03:40:40;;;;;;;;;;;;;;;21.76;30.50;97829.66;5057510;28;1681;-75
2023/05/06 03:43:06;;;;;;;;;;;;;;;21.63;30.62;97842.19;5057495;28;1056;-75
2023/05/06 03:45:32;;;;;;;;;;;;;;;21.60;30.80;97843.88;5057674;28;1264;-75
2023/05/06 03:48:00;;;;;;;;;;;;;;;21.55;30.77;97848.09;5058160;28;1103;-75
2023/05/06 03:50:27;;;;;;;;;;;;;;;21.46;31.58;97849.97;5057784;28;2018;-75
2023/05/06 03:52:53;;;;;;;;;;;;;;;22.17;31.01;97849.91;5072730;28;1131;-75
2023/05/06 03:55:21;;;;;;;;;;;;;;;22.08;30.97;97845.69;5091095;28;2258;-75
2023/05/06 03:57:47;;;;;;;;;;;;;;;22.12;30.95;97851.25;5075211;28;872;-75
2023/05/06 04:00:13;;;;;;;;;;;;;;;21.62;31.42;97847.06;5075400;28;1926;-75
2023/05/06 04:02:42;;;;;;;;;;;;;;;21.46;31.42;97844.31;5071634;28;1013;-75
2023/05/06 04:05:09;;;;;;;;;;;;;;;21.38;31.37;97855.03;5055150;28;1811;-75
2023/05/06 04:07:35;;;;;;;;;;;;;;;21.54;31.17;97852.13;5088882;28;1137;-75
2023/05/06 04:10:00;;;;;;;;;;;;;;;21.65;31.15;97860.31;5088781;28;899;-76
2023/05/06 04:12:26;;;;;;;;;;;;;;;21.66;31.11;97859.09;5055026;28;1144;-77
2023/05/06 04:14:52;;;;;;;;;;;;;;;21.28;31.69;97850.44;5071726;28;1969;-76
2023/05/06 04:17:18;;;;;;;;;;;;;;;21.34;31.61;97857.16;5071698;28;896;-76
2023/05/06 04:19:46;;;;;;;;;;;;;;;21.49;31.42;97860.38;5055027;28;970;-76
2023/05/06 04:22:12;;;;;;;;;;;;;;;21.41;31.72;97864.66;5055050;28;1090;-76
2023/05/06 04:24:37;;;;;;;;;;;;;;;21.53;31.45;97861.88;5088808;28;1145;-76
2023/05/06 04:27:03;;;;;;;;;;;;;;;21.22;31.99;97875.66;5058405;28;1145;-76
2023/05/06 04:29:29;;;;;;;;;;;;;;;21.41;31.50;97876.00;5057410;28;1129;-76
2023/05/06 04:31:58;;;;;;;;;;;;;;;21.82;31.50;97878.84;5057675;28;1126;-76
2023/05/06 04:34:26;;;;;;;;;;;;;;;22.25;30.72;97883.25;5057249;28;1913;-76
2023/05/06 04:36:53;;;;;;;;;;;;;;;22.31;30.96;97881.41;5073757;28;1106;-76
2023/05/06 04:39:27;;;;;;;;;;;;;;;22.05;30.83;97885.44;5041460;28;1276;-76
2023/05/06 04:41:53;;;;;;;;;;;;;;;21.51;31.62;97886.22;5057062;28;1235;-76
2023/05/06 04:44:28;;;;;;;;;;;;;;;21.36;32.03;97890.69;5073705;28;1126;-76
2023/05/06 04:46:53;;;;;;;;;;;;;;;21.49;31.53;97895.16;5057265;28;1134;-76
2023/05/06 04:49:19;;;;;;;;;;;;;;;21.56;31.45;97894.97;5059975;28;1125;-75
2023/05/06 04:51:45;;;;;;;;;;;;;;;21.55;31.61;97892.56;5060456;28;1445;-76
2023/05/06 04:54:11;;;;;;;;;;;;;;;21.47;31.76;97888.34;5060515;28;1121;-75
2023/05/06 04:56:38;;;;;;;;;;;;;;;21.29;31.95;97903.75;5076916;28;1922;-76
2023/05/06 04:59:06;;;;;;;;;;;;;;;21.67;31.40;97900.31;5077003;28;1157;-76
2023/05/06 05:01:32;;;;;;;;;;;;;;;22.21;31.50;97908.06;5060201;28;1280;-76
2023/05/06 05:03:58;;;;;;;;;;;;;;;22.23;31.38;97905.59;5056261;28;1003;-76
2023/05/06 05:06:24;;;;;;;;;;;;;;;22.29;31.18;97900.94;5040000;28;1307;-76
2023/05/06 05:08:49;;;;;;;;;;;;;;;22.09;31.11;97909.59;5016656;28;1243;-76
2023/05/06 05:11:15;;;;;;;;;;;;;;;21.58;31.58;97903.00;5033846;28;1164;-75
2023/05/06 05:13:41;;;;;;;;;;;;;;;21.68;31.26;97896.25;5016929;28;1207;-75
2023/05/06 05:16:07;;;;;;;;;;;;;;;21.56;31.81;97894.97;5019494;28;1918;-76
2023/05/06 05:18:35;;;;;;;;;;;;;;;21.49;31.90;97900.00;5017497;28;1161;-76
2023/05/06 05:21:08;;;;;;;;;;;;;;;21.43;31.92;97896.16;5004224;28;1207;-75
2023/05/06 05:23:35;;;;;;;;;;;;;;;21.71;31.16;97900.19;5001310;28;1215;-75
2023/05/06 05:26:00;;;;;;;;;;;;;;;21.66;31.49;97903.59;4984974;28;1104;-76
2023/05/06 05:28:26;;;;;;;;;;;;;;;21.72;31.32;97910.31;4985023;28;1202;-76
2023/05/06 05:30:53;;;;;;;;;;;;;;;21.60;31.38;97906.16;4985186;28;1237;-76
2023/05/06 05:33:20;;;;;;;;;;;;;;;21.47;31.42;97902.50;4984767;28;1203;-76
2023/05/06 05:35:45;;;;;;;;;;;;;;;21.40;31.80;97902.69;4968638;28;1918;-76
2023/05/06 05:38:13;;;;;;;;;;;;;;;22.15;31.22;97917.56;5000803;28;1586;-76
2023/05/06 05:40:39;;;;;;;;;;;;;;;22.45;31.35;97913.41;5001454;28;1163;-75
2023/05/06 05:43:05;;;;;;;;;;;;;;;22.43;31.16;97911.00;5003914;28;1138;-76
2023/05/06 05:45:35;;;;;;;;;;;;;;;22.03;31.59;97910.63;5020588;28;1214;-76
2023/05/06 05:48:01;;;;;;;;;;;;;;;21.84;31.92;97913.16;5004389;28;976;-75
2023/05/06 05:50:27;;;;;;;;;;;;;;;21.74;31.81;97922.75;5070778;28;955;-76
2023/05/06 05:52:54;;;;;;;;;;;;;;;21.55;32.19;97918.03;5076756;28;1286;-76
2023/05/06 05:55:21;;;;;;;;;;;;;;;21.46;32.45;97920.75;5043348;28;1987;-75
2023/05/06 05:57:48;;;;;;;;;;;;;;;21.63;31.81;97921.47;5043310;28;1155;-75
2023/05/06 06:00:15;;;;;;;;;;;;;;;21.74;31.76;97922.75;5043406;28;1206;-75
2023/05/06 06:02:43;;;;;;;;;;;;;;;21.61;31.95;97923.97;5043724;28;1162;-75
2023/05/06 06:05:10;;;;;;;;;;;;;;;21.57;31.80;97924.06;5059927;28;1093;-75
2023/05/06 06:07:36;;;;;;;;;;;;;;;21.70;31.78;97927.72;5059820;28;1142;-74
2023/05/06 06:10:03;;;;;;;;;;;;;;;21.73;31.60;97920.38;5059680;28;991;-74
2023/05/06 06:12:29;;;;;;;;;;;;;;;21.55;32.12;97920.88;5059539;28;1318;-74
2023/05/06 06:14:55;;;;;;;;;;;;;;;21.19;32.43;97921.81;5042867;28;1910;-75
2023/05/06 06:17:22;;;;;;;;;;;;;;;21.66;31.75;97918.56;5059272;28;1206;-74
2023/05/06 06:19:55;;;;;;;;;;;;;;;22.12;31.84;97927.75;5042993;28;1497;-76
2023/05/06 06:22:22;;;;;;;;;;;;;;;22.46;31.79;97920.66;5043609;28;1059;-74
2023/05/06 06:24:48;;;;;;;;;;;;;;;22.39;32.00;97926.56;5058378;28;1150;-75
2023/05/06 06:27:13;;;;;;;;;;;;;;;22.45;31.74;97930.44;5057835;28;1456;-75
2023/05/06 06:29:39;;;;;;;;;;;;;;;22.22;31.84;97929.47;5059128;28;974;-74
2023/05/06 06:32:06;;;;;;;;;;;;;;;22.00;32.12;97926.47;5042639;28;1250;-74
2023/05/06 06:34:31;;;;;;;;;;;;;;;21.85;31.83;97923.25;5026079;28;1969;-74
2023/05/06 06:36:57;;;;;;;;;;;;;;;21.77;32.15;97930.38;5059292;28;1041;-75
2023/05/06 06:39:23;;;;;;;;;;;;;;;21.64;32.29;97929.53;5042400;28;1014;-74
2023/05/06 06:41:48;;;;;;;;;;;;;;;21.78;32.11;97931.97;5075999;28;937;-75
2023/05/06 06:44:14;;;;;;;;;;;;;;;21.84;31.93;97937.88;5039071;28;1111;-74
2023/05/06 06:46:40;;;;;;;;;;;;;;;21.75;32.07;97935.69;5038950;28;1075;-75
2023/05/06 06:49:06;;;;;;;;;;;;;;;21.59;32.44;97949.88;5055422;28;998;-75
2023/05/06 06:51:31;;;;;;;;;;;;;;;21.66;32.14;97938.38;5035814;28;1125;-75
2023/05/06 06:53:57;;;;;;;;;;;;;;;21.71;32.09;97943.50;5018925;28;1220;-74
2023/05/06 06:56:22;;;;;;;;;;;;;;;21.78;31.85;97940.47;5035679;28;1906;-75
2023/05/06 06:58:48;;;;;;;;;;;;;;;21.83;31.68;97954.06;5023954;28;1099;-76
2023/05/06 07:01:14;;;;;;;;;;;;;;;21.67;31.97;97945.63;5035582;28;875;-76
2023/05/06 07:03:39;;;;;;;;;;;;;;;21.69;31.61;97948.78;5035494;28;1018;-75
2023/05/06 07:06:05;;;;;;;;;;;;;;;21.82;31.57;97951.69;5035477;28;1186;-74
2023/05/06 07:08:30;;;;;;;;;;;;;;;21.62;31.87;97954.66;5052072;28;1320;-75
2023/05/06 07:10:56;;;;;;;;;;;;;;;21.58;32.01;97956.78;5052067;28;1122;-74
2023/05/06 07:13:22;;;;;;;;;;;;;;;21.84;31.53;97955.66;5052083;28;1251;-75
2023/05/06 07:15:48;;;;;;;;;;;;;;;21.69;31.40;97962.16;5051488;28;1981;-74
2023/05/06 07:18:13;;;;;;;;;;;;;;;21.47;32.02;97956.28;5001867;28;1226;-75
2023/05/06 07:20:39;;;;;;;;;;;;;;;21.40;32.25;97962.13;5018131;28;903;-74
2023/05/06 07:23:04;;;;;;;;;;;;;;;21.60;31.54;97962.78;5033072;28;1174;-75
2023/05/06 07:25:31;;;;;;;;;;;;;;;21.89;31.31;97970.50;5038139;28;1106;-75
2023/05/06 07:27:56;;;;;;;;;;;;;;;22.05;30.87;97971.25;5054987;28;900;-75
2023/05/06 07:30:22;;;;;;;;;;;;;;;21.79;31.28;97975.25;5021497;28;1119;-74
2023/05/06 07:32:48;;;;;;;;;;;;;;;21.64;31.58;97974.03;5038288;28;834;-74
2023/05/06 07:35:13;;;;;;;;;;;;;;;21.76;31.44;97970.44;5037925;28;1902;-75
2023/05/06 07:37:39;;;;;;;;;;;;;;;21.69;31.33;97971.44;5039596;28;972;-74
2023/05/06 07:40:05;;;;;;;;;;;;;;;21.36;32.07;97970.72;5034842;28;877;-74
2023/05/06 07:42:31;;;;;;;;;;;;;;;21.71;32.35;97980.31;5017931;28;954;-75
2023/05/06 07:44:56;;;;;;;;;;;;;;;22.10;32.34;97972.72;5034217;28;955;-75
2023/05/06 07:47:29;;;;;;;;;;;;;;;22.44;32.03;97985.56;4998530;28;1228;-75
2023/05/06 07:49:54;;;;;;;;;;;;;;;22.58;32.39;97983.03;4998139;28;1239;-74
2023/05/06 07:52:20;;;;;;;;;;;;;;;21.95;32.98;97985.72;4998302;28;943;-74
2023/05/06 07:54:46;;;;;;;;;;;;;;;21.67;33.11;97990.94;5002996;28;1981;-75
2023/05/06 07:57:11;;;;;;;;;;;;;;;21.85;32.57;97985.56;5037595;28;1395;-75
2023/05/06 07:59:37;;;;;;;;;;;;;;;21.62;32.77;97985.03;5037384;28;1341;-74
2023/05/06 08:02:02;;;;;;;;;;;;;;;21.75;32.12;97992.31;5037934;28;996;-74
2023/05/06 08:04:28;;;;;;;;;;;;;;;21.58;32.59;97994.41;5017591;28;1132;-75
2023/05/06 08:06:54;;;;;;;;;;;;;;;21.75;32.21;97997.19;5017791;28;988;-74
2023/05/06 08:09:19;;;;;;;;;;;;;;;21.67;32.21;97996.59;5017824;28;999;-75
2023/05/06 08:11:45;;;;;;;;;;;;;;;21.67;32.07;98002.25;5017565;28;1089;-74
2023/05/06 08:14:11;;;;;;;;;;;;;;;21.64;32.43;98008.81;5017489;28;1207;-75
2023/05/06 08:16:36;;;;;;;;;;;;;;;21.44;32.60;98005.28;5034168;28;1913;-74
2023/05/06 08:19:03;;;;;;;;;;;;;;;21.46;32.50;98003.63;5017930;28;1033;-76
2023/05/06 08:21:29;;;;;;;;;;;;;;;21.59;32.14;98006.50;5034184;28;970;-75
2023/05/06 08:23:55;;;;;;;;;;;;;;;21.64;32.00;98003.16;5033943;28;1003;-75
2023/05/06 08:26:21;;;;;;;;;;;;;;;21.68;32.00;98009.50;5019012;28;962;-74
2023/05/06 08:28:46;;;;;;;;;;;;;;;21.72;31.80;98015.88;5036670;28;1017;-75
2023/05/06 08:31:12;;;;;;;;;;;;;;;21.47;32.48;98010.09;5037182;28;1223;-74
2023/05/06 08:33:37;;;;;;;;;;;;;;;21.49;32.37;98008.38;5020572;28;1141;-75
2023/05/06 08:36:03;;;;;;;;;;;;;;;21.71;32.09;98005.81;5068546;28;1906;-75
2023/05/06 08:38:29;;;;;;;;;;;;;;;21.61;32.12;98015.38;5040303;28;1117;-74
2023/05/06 08:40:55;;;;;;;;;;;;;;;21.62;32.04;98022.63;5057242;28;993;-75
2023/05/06 08:43:23;;;;;;;;;;;;;;;21.82;31.80;98014.00;5036571;28;1181;-75
2023/05/06 08:45:49;;;;;;;;;;;;;;;21.66;32.10;98029.00;5020523;28;1032;-74
2023/05/06 08:48:15;;;;;;;;;;;;;;;21.78;31.52;98018.97;5037001;28;1118;-75
2023/05/06 08:50:42;;;;;;;;;;;;;;;21.76;31.51;98016.59;5020032;28;1220;-75
2023/05/06 08:53:13;;;;;;;;;;;;;;;21.51;32.29;98027.78;5037082;28;841;-74
2023/05/06 08:55:39;;;;;;;;;;;;;;;21.84;31.76;98017.97;5040068;28;1895;-74
2023/05/06 08:58:05;;;;;;;;;;;;;;;22.44;31.99;98019.56;5040066;28;1473;-75
2023/05/06 09:00:31;;;;;;;;;;;;;;;22.45;32.77;98024.00;5056422;28;1125;-75
2023/05/06 09:02:57;;;;;;;;;;;;;;;22.54;32.95;98018.47;5110759;28;1133;-75
2023/05/06 09:05:22;;;;;;;;;;;;;;;22.17;33.27;98023.56;5093975;28;928;-74
2023/05/06 09:07:48;;;;;;;;;;;;;;;21.98;33.17;98027.31;5076929;28;1086;-75
2023/05/06 09:10:14;;;;;;;;;;;;;;;22.09;32.78;98033.50;5076852;28;957;-75
2023/05/06 09:12:39;;;;;;;;;;;;;;;21.77;32.79;98026.66;5110582;28;1224;-74
2023/05/06 09:15:06;;;;;;;;;;;;;;;21.89;32.65;98021.50;5089939;28;1902;-75
2023/05/06 09:17:31;;;;;;;;;;;;;;;21.76;32.49;98013.75;5040210;28;987;-75
2023/05/06 09:19:57;;;;;;;;;;;;;;;21.77;32.51;98017.38;5056692;28;1144;-75
2023/05/06 09:22:25;;;;;;;;;;;;;;;21.76;32.57;98016.59;5056184;28;1154;-75
2023/05/06 09:24:55;;;;;;;;;;;;;;;21.81;32.30;98013.22;5056542;28;1300;-74
2023/05/06 09:27:24;;;;;;;;;;;;;;;21.73;32.19;98011.81;5041391;28;1212;-76
2023/05/06 09:30:03;;;;;;;;;;;;;;;21.81;32.16;98007.56;5053409;28;996;-75
2023/05/06 09:32:28;;;;;;;;;;;;;;;21.55;32.72;98011.47;5036590;28;1092;-75
2023/05/06 09:34:54;;;;;;;;;;;;;;;21.81;32.09;98018.88;5053200;28;1898;-75
2023/05/06 09:37:20;;;;;;;;;;;;;;;21.77;32.22;98021.00;5036495;28;1220;-74
2023/05/06 09:39:45;;;;;;;;;;;;;;;21.51;32.48;98010.78;5036371;28;951;-74
2023/05/06 09:42:12;;;;;;;;;;;;;;;21.62;32.08;98011.31;5072826;28;1059;-75
2023/05/06 09:44:37;;;;;;;;;;;;;;;21.67;32.21;98010.75;5089662;28;947;-74
2023/05/06 09:47:03;;;;;;;;;;;;;;;21.71;31.91;98019.97;5108147;28;964;-75
2023/05/06 09:49:28;;;;;;;;;;;;;;;21.59;32.38;98017.84;5076347;28;1036;-75
2023/05/06 09:51:56;;;;;;;;;;;;;;;21.74;31.73;98002.06;5072889;28;1169;-75
2023/05/06 09:54:22;;;;;;;;;;;;;;;21.44;32.17;98006.09;5089431;28;921;-74
2023/05/06 09:56:48;;;;;;;;;;;;;;;21.84;31.68;98008.69;5072705;28;1902;-75
2023/05/06 09:59:13;;;;;;;;;;;;;;;21.74;31.79;98007.72;5089952;28;969;-75
2023/05/06 10:01:40;;;;;;;;;;;;;;;21.58;31.97;98007.75;5070685;28;919;-75
2023/05/06 10:04:08;;;;;;;;;;;;;;;21.58;31.88;97994.41;5056464;28;1238;-75
2023/05/06 10:06:35;;;;;;;;;;;;;;;21.83;32.55;98007.09;5040039;28;1262;-75
2023/05/06 10:09:01;;;;;;;;;;;;;;;22.53;32.36;98008.34;5039936;28;1076;-75
2023/05/06 10:11:27;;;;;;;;;;;;;;;22.10;33.53;98001.06;5039622;28;1219;-75
2023/05/06 10:13:53;;;;;;;;;;;;;;;22.40;32.82;98010.38;5039574;28;958;-75
2023/05/06 10:16:18;;;;;;;;;;;;;;;21.87;33.33;98004.16;5049316;28;1981;-75
2023/05/06 10:18:44;;;;;;;;;;;;;;;21.76;33.12;97999.59;5047107;28;1039;-75
2023/05/06 10:21:13;;;;;;;;;;;;;;;21.90;32.53;98003.25;4996742;28;945;-75
2023/05/06 10:23:43;;;;;;;;;;;;;;;21.89;32.38;98007.34;4996695;28;994;-75
2023/05/06 10:26:10;;;;;;;;;;;;;;;21.74;32.59;98002.06;4980741;28;1398;-75
2023/05/06 10:28:38;;;;;;;;;;;;;;;21.53;32.53;97988.47;4988523;28;965;-75
2023/05/06 10:31:04;;;;;;;;;;;;;;;21.60;32.64;97985.44;5052473;28;1013;-75
2023/05/06 10:33:29;;;;;;;;;;;;;;;21.71;32.02;97985.97;5101542;28;1027;-75
2023/05/06 10:36:04;;;;;;;;;;;;;;;21.97;31.74;97989.72;5093772;28;1893;-75
2023/05/06 10:38:35;;;;;;;;;;;;;;;21.76;32.31;97985.44;5077357;28;1167;-75
2023/05/06 10:41:00;;;;;;;;;;;;;;;21.88;31.86;98000.09;5110625;28;960;-76
2023/05/06 10:43:30;;;;;;;;;;;;;;;21.77;32.06;98004.00;5078317;28;940;-75
2023/05/06 10:46:05;;;;;;;;;;;;;;;21.43;32.44;97987.50;5110573;28;1006;-74
2023/05/06 10:48:30;;;;;;;;;;;;;;;21.69;32.06;97988.44;5076751;28;1239;-74
2023/05/06 10:51:15;;;;;;;;;;;;;;;21.90;31.64;97989.09;5110628;28;955;-75
2023/05/06 10:53:59;;;;;;;;;;;;;;;21.79;31.72;97993.03;5076980;28;960;-74
2023/05/06 10:56:25;;;;;;;;;;;;;;;21.62;31.93;97993.53;5076617;28;1898;-76
2023/05/06 10:58:50;;;;;;;;;;;;;;;21.44;32.37;97988.31;5110300;28;961;-75
2023/05/06 11:01:19;;;;;;;;;;;;;;;21.59;31.93;97995.19;5095472;28;1128;-75
2023/05/06 11:03:45;;;;;;;;;;;;;;;21.58;31.54;97993.59;5078683;28;901;-75
2023/05/06 11:06:11;;;;;;;;;;;;;;;21.53;32.03;98002.63;5062030;28;1003;-75
2023/05/06 11:08:36;;;;;;;;;;;;;;;21.53;32.27;97992.09;5062214;28;914;-75
2023/05/06 11:11:22;;;;;;;;;;;;;;;22.33;32.03;98003.66;5078574;28;1380;-75
2023/05/06 11:13:49;;;;;;;;;;;;;;;22.57;32.06;98000.53;5061131;28;1236;-75
2023/05/06 11:16:18;;;;;;;;;;;;;;;22.39;32.83;98003.13;5078239;28;2058;-75
2023/05/06 11:18:43;;;;;;;;;;;;;;;21.99;32.98;98007.03;5059197;28;1422;-75
2023/05/06 11:21:09;;;;;;;;;;;;;;;20.60;32.82;97823.94;5078712;28;957;-75
2023/05/06 11:23:41;;;;;;;;;;;;;;;21.77;32.87;98006.84;5078333;28;1096;-75
2023/05/06 11:26:09;;;;;;;;;;;;;;;21.58;32.81;98005.72;5095689;28;985;-74
2023/05/06 11:28:35;;;;;;;;;;;;;;;21.79;32.42;98010.00;5078415;28;1017;-75
2023/05/06 11:31:01;;;;;;;;;;;;;;;21.48;32.77;97995.47;5095528;28;1348;-74
2023/05/06 11:33:30;;;;;;;;;;;;;;;21.63;32.43;98004.38;5078417;28;968;-75
2023/05/06 11:35:55;;;;;;;;;;;;;;;21.67;32.37;98005.09;5077965;28;1902;-75
2023/05/06 11:38:21;;;;;;;;;;;;;;;21.71;32.42;98007.81;5075294;28;985;-74
2023/05/06 11:40:47;;;;;;;;;;;;;;;21.80;31.99;98002.31;5075995;28;1279;-75
2023/05/06 11:43:13;;;;;;;;;;;;;;;21.57;32.21;98006.19;5074488;28;1390;-75
2023/05/06 11:45:40;;;;;;;;;;;;;;;21.64;32.00;98000.31;5057806;28;1242;-75
2023/05/06 11:48:05;;;;;;;;;;;;;;;21.70;31.81;98001.34;5057750;28;927;-75
2023/05/06 11:50:31;;;;;;;;;;;;;;;21.72;31.63;98004.56;5074540;28;1081;-75
2023/05/06 11:52:57;;;;;;;;;;;;;;;21.79;31.72;98017.72;5034023;28;976;-75
2023/05/06 11:55:22;;;;;;;;;;;;;;;21.56;31.95;98007.41;5051346;28;2000;-76
2023/05/06 11:57:48;;;;;;;;;;;;;;;21.53;31.98;98008.31;5034176;28;938;-74
2023/05/06 12:00:14;;;;;;;;;;;;;;;21.66;32.00;98005.53;5051072;28;956;-75
2023/05/06 12:02:39;;;;;;;;;;;;;;;22.15;32.52;98014.72;5034199;28;1412;-75
2023/05/06 12:05:05;;;;;;;;;;;;;;;22.51;32.08;98008.81;5050826;28;1126;-75
2023/05/06 12:07:31;;;;;;;;;;;;;;;22.51;32.25;98013.69;5034043;28;947;-74
2023/05/06 12:09:57;;;;;;;;;;;;;;;22.15;32.78;98009.06;5034322;28;1044;-75
2023/05/06 12:12:23;;;;;;;;;;;;;;;21.97;32.50;98008.75;5050650;28;1139;-75
2023/05/06 12:14:49;;;;;;;;;;;;;;;21.68;33.01;98009.50;5065807;28;1975;-74
2023/05/06 12:17:15;;;;;;;;;;;;;;;21.62;32.84;98016.97;5053978;28;974;-75
2023/05/06 12:19:40;;;;;;;;;;;;;;;21.55;32.74;98011.47;5067241;28;1109;-75
2023/05/06 12:22:13;;;;;;;;;;;;;;;21.58;32.78;98019.09;5053595;28;932;-75
2023/05/06 12:24:38;;;;;;;;;;;;;;;21.57;32.50;98009.81;5071006;28;1167;-75
2023/05/06 12:27:04;;;;;;;;;;;;;;;21.63;32.19;98010.06;5108764;28;735;-75
2023/05/06 12:29:31;;;;;;;;;;;;;;;21.71;32.16;98013.47;5091893;28;875;-74
2023/05/06 12:32:07;;;;;;;;;;;;;;;21.56;32.21;98002.56;5074687;28;1159;-74
2023/05/06 12:34:39;;;;;;;;;;;;;;;21.63;32.17;98012.88;5091048;28;1980;-75
2023/05/06 12:37:05;;;;;;;;;;;;;;;21.58;32.14;98016.25;5108594;28;884;-75
2023/05/06 12:39:34;;;;;;;;;;;;;;;21.70;31.64;98020.38;5108379;28;1210;-75
2023/05/06 12:42:00;;;;;;;;;;;;;;;21.68;31.92;98015.19;5074761;28;1121;-74
2023/05/06 12:44:30;;;;;;;;;;;;;;;21.67;31.50;98002.25;5108413;28;1128;-76
2023/05/06 12:46:56;;;;;;;;;;;;;;;21.58;31.71;98004.94;5074684;28;998;-75
2023/05/06 12:49:21;;;;;;;;;;;;;;;21.68;31.69;97995.34;5090770;28;869;-75
2023/05/06 12:52:03;;;;;;;;;;;;;;;21.67;31.72;98002.25;5073403;28;954;-75
2023/05/06 12:54:29;;;;;;;;;;;;;;;21.56;32.02;98008.22;5057070;28;954;-75
2023/05/06 12:56:55;;;;;;;;;;;;;;;21.71;31.37;98002.16;5040293;28;1968;-75